Time;durP1;ratioP1;P1;durP2;ratioP2;P2;SDS_P1;SDS_P2;PMS_P1;PMS_P2;Temp;Humidity;BMP_temperature;BMP_pressure;BME280_temperature;BME280_humidity;BME280_pressure;Samples;Min_cycle;Max_cycle;Signal;HPM_P1;HPM_P2
2021/11/11 00:02:02;;;;;;;23.43;15.60;;;3.70;99.90;;;;;;5023073;28;20170;-68
2021/11/11 00:04:28;;;;;;;20.77;15.63;;;3.70;99.90;;;;;;5027905;28;20257;-68
2021/11/11 00:06:59;;;;;;;22.50;16.83;;;3.60;99.90;;;;;;5038805;28;20651;-68
2021/11/11 00:09:24;;;;;;;22.20;16.17;;;3.40;99.90;;;;;;5041543;28;20198;-67
2021/11/11 00:11:50;;;;;;;24.13;16.97;;;3.30;99.90;;;;;;5041365;28;20501;-68
2021/11/11 00:14:15;;;;;;;22.47;18.73;;;3.30;99.90;;;;;;5046524;28;20801;-68
2021/11/11 00:16:41;;;;;;;29.53;16.47;;;3.30;99.90;;;;;;5050630;28;20227;-67
2021/11/11 00:19:06;;;;;;;23.07;15.83;;;3.40;99.90;;;;;;5040557;28;20202;-68
2021/11/11 00:21:32;;;;;;;21.33;16.40;;;3.40;99.90;;;;;;5043633;28;20206;-67
2021/11/11 00:23:58;;;;;;;23.10;16.07;;;3.40;99.90;;;;;;5026650;28;20221;-68
2021/11/11 00:26:23;;;;;;;18.60;16.10;;;3.40;99.90;;;;;;5037572;28;20165;-68
2021/11/11 00:28:49;;;;;;;23.90;17.80;;;3.40;99.90;;;;;;5020659;28;20198;-68
2021/11/11 00:31:15;;;;;;;20.80;17.73;;;3.40;99.90;;;;;;5039543;28;20185;-67
2021/11/11 00:33:41;;;;;;;25.80;17.17;;;3.40;99.90;;;;;;5044072;28;20717;-67
2021/11/11 00:36:06;;;;;;;18.30;16.00;;;3.40;99.90;;;;;;5045047;28;20530;-68
2021/11/11 00:38:32;;;;;;;22.57;15.97;;;3.40;99.90;;;;;;5035410;28;20641;-68
2021/11/11 00:40:57;;;;;;;21.13;15.30;;;3.40;99.90;;;;;;5043109;28;20268;-67
2021/11/11 00:43:23;;;;;;;23.37;16.60;;;3.30;99.90;;;;;;5044988;28;20548;-67
2021/11/11 00:45:49;;;;;;;22.40;16.87;;;3.20;99.90;;;;;;5040734;28;20533;-68
2021/11/11 00:48:15;;;;;;;24.30;17.97;;;3.10;99.90;;;;;;5036856;28;20205;-67
2021/11/11 00:50:41;;;;;;;23.83;18.27;;;3.10;99.90;;;;;;5032446;28;20991;-67
2021/11/11 00:53:07;;;;;;;23.70;17.43;;;3.20;99.90;;;;;;5039223;28;20433;-68
2021/11/11 00:55:34;;;;;;;22.90;16.87;;;3.20;99.90;;;;;;5040583;28;20237;-68
2021/11/11 00:58:01;;;;;;;24.20;15.97;;;3.30;99.90;;;;;;5034261;28;20456;-68
2021/11/11 01:00:27;;;;;;;23.70;16.93;;;3.20;99.90;;;;;;5029677;28;20454;-68
2021/11/11 01:02:54;;;;;;;21.67;16.73;;;3.10;99.90;;;;;;5041319;28;20513;-67
2021/11/11 01:05:20;;;;;;;21.00;16.67;;;3.20;99.90;;;;;;5045864;28;20440;-67
2021/11/11 01:07:47;;;;;;;21.83;17.03;;;3.10;99.90;;;;;;5031657;28;20461;-67
2021/11/11 01:10:16;;;;;;;26.30;18.43;;;3.10;99.90;;;;;;5042421;28;20879;-67
2021/11/11 01:12:43;;;;;;;20.63;17.60;;;3.20;99.90;;;;;;5037646;28;20435;-67
2021/11/11 01:15:12;;;;;;;28.47;18.10;;;3.10;99.90;;;;;;5035713;28;20487;-68
2021/11/11 01:17:37;;;;;;;24.67;18.13;;;3.10;99.90;;;;;;5038832;28;20969;-68
2021/11/11 01:20:05;;;;;;;25.30;17.10;;;3.10;99.90;;;;;;5024657;28;20439;-68
2021/11/11 01:22:31;;;;;;;22.67;15.90;;;3.00;99.90;;;;;;5036075;28;20193;-67
2021/11/11 01:24:57;;;;;;;21.70;16.57;;;3.00;99.90;;;;;;5039713;28;20775;-68
2021/11/11 01:27:23;;;;;;;25.77;17.83;;;3.00;99.90;;;;;;5042243;28;20452;-67
2021/11/11 01:29:49;;;;;;;28.47;17.17;;;2.90;99.90;;;;;;5045707;28;20547;-68
2021/11/11 01:32:14;;;;;;;24.63;18.87;;;2.90;99.90;;;;;;5040489;28;20174;-67
2021/11/11 01:34:40;;;;;;;25.70;18.67;;;3.00;99.90;;;;;;5033997;28;20773;-68
2021/11/11 01:37:06;;;;;;;26.00;20.10;;;3.00;99.90;;;;;;5034665;28;20173;-67
2021/11/11 01:39:32;;;;;;;28.07;20.03;;;3.00;99.90;;;;;;5041747;28;20174;-68
2021/11/11 01:41:57;;;;;;;25.63;18.00;;;3.00;99.90;;;;;;5044632;28;20196;-67
2021/11/11 01:44:23;;;;;;;26.63;20.03;;;3.10;99.90;;;;;;5037779;28;20641;-68
2021/11/11 01:46:49;;;;;;;22.97;18.00;;;3.10;99.90;;;;;;5036619;28;20594;-67
2021/11/11 01:49:14;;;;;;;23.37;18.23;;;3.00;99.90;;;;;;5032672;28;20206;-67
2021/11/11 01:51:41;;;;;;;27.00;19.93;;;3.10;99.90;;;;;;5047639;28;20252;-67
2021/11/11 01:54:07;;;;;;;26.40;20.37;;;3.00;99.90;;;;;;5039186;28;20166;-67
2021/11/11 01:56:33;;;;;;;24.53;19.13;;;3.00;99.90;;;;;;5045769;28;20523;-68
2021/11/11 01:58:59;;;;;;;30.90;19.10;;;2.90;99.90;;;;;;5037069;28;20479;-68
2021/11/11 02:01:25;;;;;;;31.30;20.70;;;3.00;99.90;;;;;;5037452;28;20470;-68
2021/11/11 02:03:53;;;;;;;23.73;18.20;;;3.10;99.90;;;;;;5031145;28;20188;-68
2021/11/11 02:06:19;;;;;;;26.30;17.23;;;3.10;99.90;;;;;;5042302;28;20177;-68
2021/11/11 02:08:45;;;;;;;24.63;18.10;;;3.10;99.90;;;;;;5036024;28;20460;-68
2021/11/11 02:11:10;;;;;;;21.63;16.70;;;3.10;99.90;;;;;;5035068;28;20520;-68
2021/11/11 02:13:36;;;;;;;19.97;17.37;;;3.10;99.90;;;;;;5032732;28;20200;-68
2021/11/11 02:16:02;;;;;;;26.50;19.63;;;2.90;99.90;;;;;;5039278;28;20572;-67
2021/11/11 02:18:27;;;;;;;22.37;17.90;;;3.00;99.90;;;;;;5041848;28;20205;-67
2021/11/11 02:20:53;;;;;;;24.30;17.70;;;3.00;99.90;;;;;;5034744;28;20189;-68
2021/11/11 02:23:20;;;;;;;26.57;19.00;;;3.00;99.90;;;;;;5041326;28;20557;-68
2021/11/11 02:25:45;;;;;;;24.37;18.13;;;3.00;99.90;;;;;;5036794;28;20198;-68
2021/11/11 02:28:14;;;;;;;24.20;18.17;;;3.00;99.90;;;;;;5027867;28;20566;-68
2021/11/11 02:30:43;;;;;;;24.07;17.90;;;3.00;99.90;;;;;;5032848;28;20943;-68
2021/11/11 02:33:19;;;;;;;24.90;18.27;;;3.00;99.90;;;;;;5038758;28;20428;-67
2021/11/11 02:35:45;;;;;;;22.00;17.83;;;3.00;99.90;;;;;;5036931;28;20502;-68
2021/11/11 02:38:12;;;;;;;26.17;19.77;;;3.00;99.90;;;;;;5037952;28;20659;-67
2021/11/11 02:40:39;;;;;;;28.20;18.53;;;2.90;99.90;;;;;;5020550;28;20441;-67
2021/11/11 02:43:06;;;;;;;25.20;19.90;;;2.90;99.90;;;;;;5037320;28;20782;-68
2021/11/11 02:45:34;;;;;;;30.03;19.93;;;2.80;99.90;;;;;;5036630;28;20865;-68
2021/11/11 02:48:01;;;;;;;29.33;20.27;;;2.80;99.90;;;;;;5037512;28;20472;-68
2021/11/11 02:50:28;;;;;;;32.53;20.40;;;2.80;99.90;;;;;;5035804;28;21123;-68
2021/11/11 02:52:55;;;;;;;24.97;18.80;;;2.90;99.90;;;;;;5037601;28;20443;-67
2021/11/11 02:55:22;;;;;;;25.33;18.37;;;2.90;99.90;;;;;;5046013;28;20474;-67
2021/11/11 02:57:49;;;;;;;27.97;19.70;;;3.00;99.90;;;;;;5041082;28;20463;-67
2021/11/11 03:00:25;;;;;;;28.30;18.80;;;3.00;99.90;;;;;;5028858;28;20440;-67
2021/11/11 03:02:52;;;;;;;30.80;19.13;;;3.00;99.90;;;;;;5046634;28;20432;-68
2021/11/11 03:05:20;;;;;;;20.83;16.60;;;3.00;99.90;;;;;;5036173;28;20859;-68
2021/11/11 03:07:46;;;;;;;24.00;17.77;;;3.00;99.90;;;;;;5032167;28;20519;-68
2021/11/11 03:10:15;;;;;;;25.90;18.20;;;3.00;99.90;;;;;;5022993;28;20429;-68
2021/11/11 03:12:41;;;;;;;25.60;19.63;;;3.10;99.90;;;;;;5020935;28;20211;-68
2021/11/11 03:15:07;;;;;;;19.50;16.10;;;3.00;99.90;;;;;;5045923;28;20869;-68
2021/11/11 03:17:33;;;;;;;24.17;18.70;;;2.90;99.90;;;;;;5045677;28;20453;-68
2021/11/11 03:19:59;;;;;;;28.77;16.70;;;2.90;99.90;;;;;;5045530;28;20508;-67
2021/11/11 03:22:25;;;;;;;21.00;16.03;;;3.00;99.90;;;;;;5037448;28;20187;-68
2021/11/11 03:24:53;;;;;;;24.43;18.37;;;2.90;99.90;;;;;;5036410;28;20789;-68
2021/11/11 03:27:20;;;;;;;27.33;18.43;;;2.80;99.90;;;;;;5041689;28;20170;-67
2021/11/11 03:29:48;;;;;;;24.60;18.47;;;2.80;99.90;;;;;;5037416;28;20464;-67
2021/11/11 03:32:14;;;;;;;25.30;19.03;;;2.70;99.90;;;;;;5033598;28;20961;-67
2021/11/11 03:34:41;;;;;;;22.43;17.20;;;2.70;99.90;;;;;;5035845;28;20433;-68
2021/11/11 03:37:08;;;;;;;25.67;18.77;;;2.80;99.90;;;;;;5038645;28;20436;-67
2021/11/11 03:39:35;;;;;;;22.40;18.60;;;2.80;99.90;;;;;;5034744;28;20432;-67
2021/11/11 03:42:01;;;;;;;21.20;18.17;;;2.80;99.90;;;;;;5033851;28;20438;-67
2021/11/11 03:44:26;;;;;;;23.53;19.20;;;2.80;99.90;;;;;;5034879;28;20439;-67
2021/11/11 03:46:55;;;;;;;25.90;18.50;;;2.80;99.90;;;;;;5045561;28;20464;-68
2021/11/11 03:49:21;;;;;;;25.27;18.20;;;2.80;99.90;;;;;;5033980;28;20245;-68
2021/11/11 03:51:47;;;;;;;25.67;19.13;;;2.80;99.90;;;;;;5025613;28;20437;-67
2021/11/11 03:54:14;;;;;;;27.03;19.03;;;2.80;99.90;;;;;;5013295;28;20438;-68
2021/11/11 03:56:43;;;;;;;28.47;20.80;;;2.70;99.90;;;;;;5026989;28;20446;-67
2021/11/11 03:59:10;;;;;;;24.23;19.20;;;2.70;99.90;;;;;;5045763;28;20451;-67
2021/11/11 04:01:36;;;;;;;26.57;18.40;;;2.70;99.90;;;;;;5045175;28;20439;-68
2021/11/11 04:04:03;;;;;;;23.80;18.57;;;2.70;99.90;;;;;;5012176;28;20446;-68
2021/11/11 04:06:30;;;;;;;24.27;17.57;;;2.80;99.90;;;;;;5028923;28;20428;-68
2021/11/11 04:08:55;;;;;;;22.57;17.83;;;2.80;99.90;;;;;;5035793;28;20992;-68
2021/11/11 04:11:21;;;;;;;25.47;18.57;;;2.80;99.90;;;;;;5046959;28;20499;-68
2021/11/11 04:13:47;;;;;;;26.63;19.90;;;2.80;99.90;;;;;;5031946;28;20222;-68
2021/11/11 04:16:13;;;;;;;24.17;20.43;;;2.80;99.90;;;;;;5040582;28;20173;-68
2021/11/11 04:18:38;;;;;;;23.80;19.97;;;2.80;99.90;;;;;;5037775;28;20449;-68
2021/11/11 04:21:04;;;;;;;22.20;18.93;;;2.80;99.90;;;;;;5026648;28;20183;-68
2021/11/11 04:23:29;;;;;;;25.57;20.10;;;2.70;99.90;;;;;;5035855;28;20182;-67
2021/11/11 04:28:30;;;;;;;21.80;18.13;;;2.70;99.90;;;;;;5037759;28;20210;-67
2021/11/11 04:30:59;;;;;;;25.97;18.50;;;2.70;99.90;;;;;;5026658;28;20433;-68
2021/11/11 04:33:25;;;;;;;30.10;19.70;;;2.80;99.90;;;;;;5039628;28;20511;-67
2021/11/11 04:35:57;;;;;;;29.13;18.77;;;2.80;99.90;;;;;;5026888;28;20822;-67
2021/11/11 04:49:20;;;;;;;24.70;19.20;;;2.60;99.90;;;;;;5039895;28;20482;-67
2021/11/11 05:00:04;;;;;;;31.27;20.90;;;2.50;99.90;;;;;;5022374;28;20432;-68
2021/11/11 05:05:14;;;;;;;26.73;20.30;;;2.60;99.90;;;;;;5043110;28;20623;-67
2021/11/11 05:07:40;;;;;;;26.57;19.60;;;2.60;99.90;;;;;;5046465;28;20539;-67
2021/11/11 05:10:06;;;;;;;32.73;21.23;;;2.60;99.90;;;;;;5042041;28;20201;-67
2021/11/11 05:12:31;;;;;;;32.70;20.90;;;2.60;99.90;;;;;;5040563;28;20720;-66
2021/11/11 05:14:57;;;;;;;25.13;18.90;;;2.60;99.90;;;;;;5045290;28;20483;-69
2021/11/11 05:17:24;;;;;;;27.60;20.47;;;2.50;99.90;;;;;;5035974;28;20189;-67
2021/11/11 05:19:51;;;;;;;26.17;21.80;;;2.50;99.90;;;;;;5043197;28;20169;-67
2021/11/11 05:22:17;;;;;;;30.17;21.27;;;2.50;99.90;;;;;;5030402;28;20436;-67
2021/11/11 05:24:43;;;;;;;27.00;20.40;;;2.50;99.90;;;;;;5039484;28;20486;-67
2021/11/11 05:27:11;;;;;;;27.70;20.53;;;2.40;99.90;;;;;;5038867;28;20829;-69
2021/11/11 05:29:36;;;;;;;29.53;19.87;;;2.50;99.90;;;;;;5037274;28;20189;-68
2021/11/11 05:32:02;;;;;;;25.50;19.23;;;2.50;99.90;;;;;;5032276;28;20429;-67
2021/11/11 05:34:28;;;;;;;23.53;19.00;;;2.60;99.90;;;;;;5040535;28;20185;-67
2021/11/11 05:36:53;;;;;;;24.50;19.50;;;2.60;99.90;;;;;;5031584;28;20190;-67
2021/11/11 05:39:19;;;;;;;25.80;19.20;;;2.60;99.90;;;;;;5036022;28;20241;-67
2021/11/11 05:41:45;;;;;;;27.77;19.97;;;2.60;99.90;;;;;;5048123;28;20181;-67
2021/11/11 05:44:10;;;;;;;25.80;20.13;;;2.60;99.90;;;;;;5041199;28;20206;-68
2021/11/11 05:46:36;;;;;;;25.10;18.10;;;2.60;99.90;;;;;;5038602;28;20253;-67
2021/11/11 05:49:02;;;;;;;23.13;18.33;;;2.50;99.90;;;;;;5040818;28;20237;-67
2021/11/11 05:51:27;;;;;;;25.13;19.37;;;2.50;99.90;;;;;;5037454;28;20182;-68
2021/11/11 05:53:53;;;;;;;25.83;19.60;;;2.50;99.90;;;;;;5045693;28;20435;-67
2021/11/11 05:56:19;;;;;;;27.50;19.83;;;2.40;99.90;;;;;;5044176;28;20179;-68
2021/11/11 05:58:44;;;;;;;28.67;19.60;;;2.40;99.90;;;;;;5038980;28;20289;-67
2021/11/11 06:01:11;;;;;;;26.67;19.60;;;2.50;99.90;;;;;;5038501;28;20240;-68
2021/11/11 06:03:36;;;;;;;30.17;20.17;;;2.50;99.90;;;;;;5043829;28;20619;-68
2021/11/11 06:06:02;;;;;;;31.80;22.27;;;2.50;99.90;;;;;;5049468;28;20459;-67
2021/11/11 06:08:28;;;;;;;24.80;20.27;;;2.40;99.90;;;;;;5041876;28;20207;-67
2021/11/11 06:10:53;;;;;;;25.67;19.40;;;2.40;99.90;;;;;;5038925;28;20210;-67
2021/11/11 06:13:21;;;;;;;26.53;20.37;;;2.50;99.90;;;;;;5042913;28;20703;-67
2021/11/11 06:15:46;;;;;;;31.83;20.00;;;2.50;99.90;;;;;;5035220;28;20567;-67
2021/11/11 06:18:13;;;;;;;26.67;19.80;;;2.50;99.90;;;;;;5033461;28;20456;-67
2021/11/11 06:20:45;;;;;;;27.67;21.17;;;2.50;99.90;;;;;;5048235;28;20170;-67
2021/11/11 06:23:11;;;;;;;28.40;21.00;;;2.50;99.90;;;;;;5041111;28;20437;-67
2021/11/11 06:25:39;;;;;;;32.30;20.50;;;2.50;99.90;;;;;;5034927;28;20569;-67
2021/11/11 06:28:05;;;;;;;26.60;19.23;;;2.60;99.90;;;;;;5036271;28;20534;-67
2021/11/11 06:30:31;;;;;;;28.13;20.90;;;2.60;99.90;;;;;;5030829;28;20806;-66
2021/11/11 06:32:56;;;;;;;27.10;22.20;;;2.60;99.90;;;;;;5036626;28;20444;-67
2021/11/11 06:35:22;;;;;;;26.00;19.97;;;2.60;99.90;;;;;;5039199;28;20233;-67
2021/11/11 06:37:47;;;;;;;30.00;20.37;;;2.60;99.90;;;;;;5037143;28;20197;-67
2021/11/11 06:40:13;;;;;;;30.93;21.90;;;2.60;99.90;;;;;;5035946;28;20193;-66
2021/11/11 06:42:39;;;;;;;31.87;23.10;;;2.60;99.90;;;;;;5036024;28;20162;-66
2021/11/11 06:45:11;;;;;;;32.97;21.23;;;2.70;99.90;;;;;;5034152;28;20253;-66
2021/11/11 06:47:38;;;;;;;27.17;21.03;;;2.70;99.90;;;;;;5045840;28;20578;-69
2021/11/11 06:50:04;;;;;;;28.37;19.90;;;2.80;99.90;;;;;;5052014;28;20933;-67
2021/11/11 06:52:30;;;;;;;34.17;21.43;;;2.80;99.90;;;;;;5040959;28;20432;-67
2021/11/11 06:54:56;;;;;;;30.73;21.73;;;2.90;99.90;;;;;;5036861;28;20439;-68
2021/11/11 06:57:21;;;;;;;25.33;20.40;;;3.00;99.90;;;;;;5035286;28;20588;-68
2021/11/11 06:59:47;;;;;;;27.73;20.40;;;3.20;99.90;;;;;;5037006;28;20169;-68
2021/11/11 07:02:12;;;;;;;24.70;18.40;;;3.30;99.90;;;;;;5047458;28;20624;-68
2021/11/11 07:04:38;;;;;;;25.57;19.57;;;3.30;99.90;;;;;;5049975;28;20180;-69
2021/11/11 07:07:03;;;;;;;30.33;23.40;;;3.40;99.90;;;;;;5037535;28;20185;-68
2021/11/11 07:09:29;;;;;;;27.77;20.57;;;3.60;99.90;;;;;;5042772;28;20202;-68
2021/11/11 07:11:55;;;;;;;28.10;20.80;;;3.90;99.90;;;;;;5045610;28;20219;-69
2021/11/11 07:14:21;;;;;;;30.20;21.93;;;4.30;99.90;;;;;;5020262;28;20249;-69
2021/11/11 07:16:46;;;;;;;33.07;22.67;;;4.70;99.90;;;;;;5039488;28;20257;-69
2021/11/11 07:19:12;;;;;;;29.83;20.80;;;5.10;99.90;;;;;;5030267;28;20587;-69
2021/11/11 07:21:38;;;;;;;20.67;17.33;;;5.40;99.90;;;;;;5030613;28;20174;-69
2021/11/11 07:24:04;;;;;;;23.47;20.43;;;5.70;99.90;;;;;;5039709;28;20442;-68
2021/11/11 07:26:30;;;;;;;24.10;19.53;;;6.10;99.90;;;;;;5050013;28;20526;-69
2021/11/11 07:28:55;;;;;;;26.80;18.93;;;6.40;99.90;;;;;;5044515;28;20205;-69
2021/11/11 07:31:24;;;;;;;26.93;20.90;;;6.70;99.90;;;;;;5045183;28;20770;-70
2021/11/11 07:33:50;;;;;;;24.90;20.00;;;7.00;99.90;;;;;;5043225;28;20669;-69
2021/11/11 07:36:16;;;;;;;27.73;20.57;;;7.30;99.90;;;;;;5039274;28;20429;-68
2021/11/11 07:38:41;;;;;;;23.83;17.20;;;7.70;99.90;;;;;;5047262;28;20467;-68
2021/11/11 07:41:07;;;;;;;20.53;18.40;;;8.10;99.90;;;;;;5030075;28;20185;-68
2021/11/11 07:43:33;;;;;;;25.77;19.70;;;8.60;99.90;;;;;;5030430;28;20178;-68
2021/11/11 07:46:04;;;;;;;24.13;19.27;;;9.20;99.90;;;;;;5032504;28;20261;-68
2021/11/11 07:48:30;;;;;;;23.73;19.80;;;9.80;99.90;;;;;;5039533;28;20297;-68
2021/11/11 07:50:57;;;;;;;21.63;19.43;;;10.10;99.90;;;;;;5032778;28;20846;-67
2021/11/11 07:53:23;;;;;;;25.67;19.27;;;10.70;99.90;;;;;;5030021;28;20177;-68
2021/11/11 07:55:48;;;;;;;24.13;18.90;;;11.20;99.90;;;;;;5023524;28;20798;-69
2021/11/11 07:58:15;;;;;;;24.60;20.70;;;11.40;99.90;;;;;;5022842;28;20194;-69
2021/11/11 08:00:41;;;;;;;22.67;20.37;;;11.60;99.90;;;;;;5031389;28;20190;-69
2021/11/11 08:03:07;;;;;;;25.00;19.30;;;11.90;99.90;;;;;;5028491;28;20472;-69
2021/11/11 08:05:34;;;;;;;20.43;18.43;;;12.20;99.90;;;;;;5041789;28;20944;-69
2021/11/11 08:07:59;;;;;;;20.40;18.40;;;12.50;99.90;;;;;;5036464;28;20468;-68
2021/11/11 08:10:25;;;;;;;21.10;18.90;;;12.90;99.90;;;;;;5031910;28;20434;-68
2021/11/11 08:12:51;;;;;;;21.60;18.27;;;13.50;99.90;;;;;;5044781;28;20232;-68
2021/11/11 08:15:17;;;;;;;21.13;19.00;;;13.80;99.90;;;;;;5034565;28;20169;-67
2021/11/11 08:17:44;;;;;;;21.10;19.00;;;14.30;99.90;;;;;;5030456;28;21041;-68
2021/11/11 08:20:14;;;;;;;19.67;17.87;;;14.80;99.90;;;;;;5041171;28;20428;-68
2021/11/11 08:22:40;;;;;;;22.93;20.63;;;15.10;99.00;;;;;;5044291;28;20464;-67
2021/11/11 08:25:08;;;;;;;21.13;18.70;;;15.30;97.80;;;;;;5034197;28;20447;-68
2021/11/11 08:27:35;;;;;;;22.10;19.80;;;15.40;97.50;;;;;;5035355;28;20811;-68
2021/11/11 08:30:01;;;;;;;21.13;19.03;;;15.80;96.40;;;;;;5037555;28;20444;-68
2021/11/11 08:32:27;;;;;;;22.60;20.30;;;16.10;94.90;;;;;;5037714;28;20440;-68
2021/11/11 08:34:52;;;;;;;22.13;19.77;;;16.20;94.40;;;;;;5035895;28;20432;-68
2021/11/11 08:37:19;;;;;;;22.17;19.97;;;16.30;93.70;;;;;;5048315;28;20205;-69
2021/11/11 08:39:44;;;;;;;20.97;18.77;;;15.90;94.60;;;;;;5038390;28;20186;-68
2021/11/11 08:42:11;;;;;;;20.17;18.10;;;16.50;93.50;;;;;;5039744;28;20439;-69
2021/11/11 08:44:42;;;;;;;21.93;19.47;;;17.10;92.40;;;;;;5046562;28;20261;-68
2021/11/11 08:47:12;;;;;;;29.07;20.20;;;17.80;90.90;;;;;;5039885;28;20428;-68
2021/11/11 08:49:38;;;;;;;24.53;22.10;;;18.30;89.30;;;;;;5047440;28;20888;-68
2021/11/11 08:52:04;;;;;;;21.23;19.07;;;18.60;88.30;;;;;;5040189;28;20433;-68
2021/11/11 08:54:29;;;;;;;20.43;18.50;;;19.20;84.70;;;;;;5044311;28;20518;-69
2021/11/11 08:56:55;;;;;;;23.67;20.13;;;19.90;81.30;;;;;;5042880;28;20224;-69
2021/11/11 08:59:23;;;;;;;20.67;18.97;;;20.40;79.10;;;;;;5038413;28;20262;-68
2021/11/11 09:01:50;;;;;;;22.43;19.87;;;20.60;77.00;;;;;;5039341;28;20174;-68
2021/11/11 09:04:18;;;;;;;22.73;18.17;;;20.90;75.10;;;;;;5039751;28;20463;-68
2021/11/11 09:06:44;;;;;;;20.80;18.70;;;21.40;73.00;;;;;;5033454;28;20440;-68
2021/11/11 09:09:13;;;;;;;22.87;20.77;;;21.50;71.00;;;;;;5028109;28;20830;-68
2021/11/11 09:11:40;;;;;;;21.90;19.80;;;21.00;70.30;;;;;;5046198;28;20446;-69
2021/11/11 09:14:06;;;;;;;21.17;19.23;;;21.20;69.80;;;;;;5039170;28;20954;-68
2021/11/11 09:16:33;;;;;;;21.40;19.40;;;21.50;69.00;;;;;;5048395;28;20480;-68
2021/11/11 09:18:59;;;;;;;21.93;19.93;;;21.20;68.00;;;;;;5036508;28;20518;-68
2021/11/11 09:21:26;;;;;;;22.83;20.80;;;21.20;66.90;;;;;;5043169;28;20435;-69
2021/11/11 09:23:52;;;;;;;22.30;20.20;;;21.60;67.20;;;;;;5046134;28;20800;-69
2021/11/11 09:26:18;;;;;;;24.00;20.30;;;22.30;66.10;;;;;;5036269;28;20443;-68
2021/11/11 09:28:45;;;;;;;22.43;20.40;;;22.50;62.60;;;;;;5039014;28;20551;-68
2021/11/11 09:31:11;;;;;;;21.80;19.80;;;23.00;61.90;;;;;;5027665;28;20440;-68
2021/11/11 09:33:39;;;;;;;23.97;21.50;;;22.70;61.10;;;;;;5041746;28;20435;-69
2021/11/11 09:36:05;;;;;;;22.47;20.37;;;21.70;61.40;;;;;;5039815;28;20431;-69
2021/11/11 09:38:31;;;;;;;22.10;20.07;;;21.60;62.80;;;;;;5041851;28;20857;-68
2021/11/11 09:40:57;;;;;;;22.83;20.53;;;21.90;62.80;;;;;;5038545;28;20256;-69
2021/11/11 09:43:24;;;;;;;21.57;19.50;;;22.40;61.40;;;;;;5039045;28;20681;-68
2021/11/11 09:45:50;;;;;;;22.60;20.60;;;22.60;60.50;;;;;;5035627;28;20835;-69
2021/11/11 09:48:15;;;;;;;22.67;20.53;;;22.60;60.80;;;;;;5036518;28;20496;-68
2021/11/11 09:50:44;;;;;;;22.93;20.70;;;23.20;59.00;;;;;;5036822;28;20466;-69
2021/11/11 09:53:13;;;;;;;22.80;20.50;;;23.90;58.40;;;;;;5048099;28;20260;-68
2021/11/11 10:01:12;;;;;;;21.73;19.73;;;25.20;54.20;;;;;;5042666;28;20914;-69
2021/11/11 10:03:43;;;;;;;21.87;20.07;;;24.70;54.50;;;;;;5038468;28;20432;-69
2021/11/11 10:06:15;;;;;;;22.33;20.27;;;24.80;53.90;;;;;;5049727;28;20468;-69
2021/11/11 10:08:44;;;;;;;23.10;20.90;;;24.60;53.60;;;;;;5026173;28;21083;-69
2021/11/11 10:11:32;;;;;;;20.97;19.20;;;24.40;54.10;;;;;;5041755;28;20818;-69
2021/11/11 10:14:14;;;;;;;26.20;19.67;;;24.00;54.20;;;;;;5017147;28;20442;-69
2021/11/11 10:16:45;;;;;;;24.13;18.40;;;24.60;53.40;;;;;;5013754;28;20919;-69
2021/11/11 10:19:11;;;;;;;24.80;22.23;;;25.20;52.60;;;;;;5013460;28;20453;-70
2021/11/11 10:24:15;;;;;;;26.13;20.47;;;25.40;51.80;;;;;;5033447;28;20420;-69
2021/11/11 10:26:47;;;;;;;23.67;21.37;;;25.70;51.30;;;;;;5031975;28;20421;-69
2021/11/11 10:29:29;;;;;;;22.37;20.17;;;25.30;51.20;;;;;;5032954;28;20849;-69
2021/11/11 10:32:00;;;;;;;22.07;19.93;;;25.50;51.10;;;;;;5033288;28;20419;-69
2021/11/11 10:34:25;;;;;;;22.00;19.80;;;25.50;50.90;;;;;;5033267;28;20786;-69
2021/11/11 10:36:53;;;;;;;22.67;20.60;;;26.10;50.30;;;;;;5033092;28;20413;-69
2021/11/11 10:39:25;;;;;;;21.97;19.87;;;25.40;50.50;;;;;;5033217;28;20276;-70
2021/11/11 10:41:53;;;;;;;22.80;20.60;;;25.60;50.90;;;;;;5033151;28;20977;-69
2021/11/11 10:44:29;;;;;;;23.23;21.23;;;26.10;50.10;;;;;;5033072;28;20427;-70
2021/11/11 10:46:56;;;;;;;22.57;20.67;;;26.80;49.50;;;;;;5032845;28;20421;-70
2021/11/11 10:49:32;;;;;;;22.37;20.40;;;27.10;48.80;;;;;;5032511;28;20461;-70
2021/11/11 10:52:23;;;;;;;23.57;21.47;;;27.10;48.20;;;;;;5032803;28;20932;-70
2021/11/11 10:55:04;;;;;;;24.53;21.93;;;28.00;47.40;;;;;;5032160;28;20428;-70
2021/11/11 10:57:32;;;;;;;21.40;19.63;;;29.00;46.00;;;;;;5032456;28;20435;-70
2021/11/11 11:00:20;;;;;;;23.93;21.60;;;29.10;44.90;;;;;;5032774;28;20501;-70
2021/11/11 11:03:06;;;;;;;23.90;21.50;;;29.10;44.60;;;;;;5032769;28;20470;-69
2021/11/11 11:05:33;;;;;;;24.13;22.03;;;29.80;43.60;;;;;;5032653;28;20417;-71
2021/11/11 11:08:06;;;;;;;23.37;21.30;;;30.50;42.60;;;;;;5032183;28;21008;-70
2021/11/11 11:10:33;;;;;;;23.63;21.40;;;30.80;42.00;;;;;;5032483;28;20428;-70
2021/11/11 11:13:05;;;;;;;24.27;22.20;;;31.00;41.30;;;;;;5032549;28;20468;-70
2021/11/11 11:15:40;;;;;;;23.87;21.97;;;30.80;41.00;;;;;;5032553;28;20453;-70
2021/11/11 11:18:07;;;;;;;23.17;21.37;;;31.10;40.40;;;;;;5030295;28;20968;-70
2021/11/11 11:20:34;;;;;;;21.50;19.87;;;31.30;40.00;;;;;;5036935;28;20860;-70
2021/11/11 11:23:15;;;;;;;22.20;20.40;;;31.50;39.50;;;;;;5027770;28;20491;-71
2021/11/11 11:25:54;;;;;;;21.97;20.27;;;31.20;39.50;;;;;;5032199;28;20442;-71
2021/11/11 11:28:23;;;;;;;23.30;21.50;;;31.40;39.20;;;;;;5029024;28;20991;-70
2021/11/11 11:30:51;;;;;;;23.57;21.30;;;31.80;38.70;;;;;;5035001;28;20432;-70
2021/11/11 11:33:29;;;;;;;23.97;21.87;;;31.60;38.10;;;;;;5032739;28;20436;-71
2021/11/11 11:35:55;;;;;;;23.90;21.87;;;31.00;38.70;;;;;;5034097;28;20437;-70
2021/11/11 11:38:26;;;;;;;24.03;22.10;;;31.30;38.80;;;;;;5039047;28;20455;-71
2021/11/11 11:40:52;;;;;;;25.20;23.00;;;31.40;38.40;;;;;;5044209;28;20193;-70
2021/11/11 11:43:29;;;;;;;23.30;21.20;;;31.50;38.10;;;;;;5037279;28;20791;-71
2021/11/11 11:46:10;;;;;;;24.43;22.63;;;31.20;38.10;;;;;;5044802;28;20436;-71
2021/11/11 11:48:37;;;;;;;25.00;23.00;;;30.70;38.30;;;;;;5028668;28;20874;-70
2021/11/11 11:51:06;;;;;;;24.97;23.00;;;30.90;38.40;;;;;;5034806;28;20428;-71
2021/11/11 11:53:38;;;;;;;25.97;23.37;;;31.00;38.20;;;;;;5047636;28;20432;-72
2021/11/11 11:56:11;;;;;;;24.27;21.83;;;30.40;37.90;;;;;;5042270;28;20441;-72
2021/11/11 11:58:50;;;;;;;24.57;22.27;;;30.50;37.90;;;;;;5031404;28;20587;-72
2021/11/11 12:06:32;;;;;;;23.63;21.30;;;30.80;38.00;;;;;;5041310;28;20182;-71
2021/11/11 12:16:59;;;;;;;22.50;20.80;;;30.50;37.30;;;;;;5031048;28;20422;-70
2021/11/11 12:28:50;;;;;;;29.43;26.80;;;31.40;37.00;;;;;;5035774;28;20474;-71
2021/11/11 12:39:38;;;;;;;23.83;21.63;;;30.00;37.50;;;;;;5031998;28;20468;-71
2021/11/11 12:42:08;;;;;;;24.97;22.83;;;29.60;38.00;;;;;;5033703;28;20470;-72
2021/11/11 12:44:34;;;;;;;22.80;20.90;;;29.00;38.40;;;;;;5045199;28;20468;-72
2021/11/11 12:47:01;;;;;;;21.00;19.20;;;29.30;38.70;;;;;;5041385;28;20432;-71
2021/11/11 12:49:28;;;;;;;21.17;19.43;;;29.80;38.10;;;;;;5039094;28;20455;-71
2021/11/11 12:52:12;;;;;;;23.10;21.00;;;30.30;37.50;;;;;;5043570;28;20440;-71
2021/11/11 12:54:41;;;;;;;22.57;20.47;;;29.40;37.90;;;;;;5037189;28;20474;-70
2021/11/11 12:57:08;;;;;;;21.53;19.43;;;29.10;38.70;;;;;;5034543;28;20429;-71
2021/11/11 12:59:36;;;;;;;20.53;18.93;;;30.00;38.30;;;;;;5041230;28;20570;-71
2021/11/11 13:02:06;;;;;;;21.27;19.63;;;29.80;37.50;;;;;;5042979;28;21161;-71
2021/11/11 13:04:45;;;;;;;22.57;20.50;;;29.80;37.90;;;;;;5044446;28;20493;-71
2021/11/11 13:07:26;;;;;;;23.50;21.40;;;29.20;38.60;;;;;;5045177;28;20440;-71
2021/11/11 13:10:09;;;;;;;21.90;20.03;;;29.00;38.80;;;;;;5041388;28;20495;-72
2021/11/11 13:12:36;;;;;;;22.10;20.10;;;28.80;38.70;;;;;;5039025;28;20949;-71
2021/11/11 13:15:14;;;;;;;22.17;20.23;;;29.80;38.30;;;;;;5037289;28;20478;-71
2021/11/11 13:17:46;;;;;;;22.93;20.93;;;30.60;37.50;;;;;;5034650;28;20452;-72
2021/11/11 13:20:40;;;;;;;21.30;19.40;;;31.20;37.10;;;;;;5036924;28;20436;-71
2021/11/11 13:23:31;;;;;;;22.33;20.53;;;31.10;36.70;;;;;;5036718;28;20803;-71
2021/11/11 13:54:49;;;;;;;29.57;26.87;;;16.90;55.70;;;;;;5037522;28;20435;-71
2021/11/11 14:00:15;;;;;;;29.70;26.87;;;14.60;62.50;;;;;;5041549;28;20435;-72
2021/11/11 15:19:14;;;;;;;30.50;25.80;;;9.50;99.90;;;;;;5030710;28;20605;-72
2021/11/11 16:01:18;;;;;;;30.83;27.50;;;8.00;99.90;;;;;;5031659;28;20428;-72
2021/11/11 16:27:47;;;;;;;33.17;29.00;;;7.10;99.90;;;;;;5037936;28;20263;-72
2021/11/11 16:30:17;;;;;;;34.73;26.90;;;7.10;99.90;;;;;;5040867;28;20922;-71
2021/11/11 16:32:43;;;;;;;37.80;28.53;;;7.10;99.90;;;;;;5039466;28;20169;-72